createdAt,value
2023-04-08T00:00:00.637Z,24.20
2023-04-08T00:01:00.662Z,22.40
2023-04-08T00:02:00.713Z,27.10
2023-04-08T00:03:00.785Z,22.10
2023-04-08T00:04:00.815Z,22.20
2023-04-08T00:05:00.632Z,21.50
2023-04-08T00:06:00.564Z,23.80
2023-04-08T00:07:00.582Z,24.80
2023-04-08T00:08:00.548Z,27.50
2023-04-08T00:09:00.549Z,19.50
2023-04-08T00:10:00.528Z,25.10
2023-04-08T00:11:00.526Z,23.90
2023-04-08T00:12:00.497Z,24.20
2023-04-08T00:13:00.485Z,25.20
2023-04-08T00:14:00.487Z,23.30
2023-04-08T00:15:00.485Z,23.30
2023-04-08T00:16:00.462Z,19.60
2023-04-08T00:17:00.496Z,21.80
2023-04-08T00:18:00.460Z,23.90
2023-04-08T00:19:00.405Z,26.50
2023-04-08T00:20:00.400Z,27.80
2023-04-08T00:21:00.362Z,30.30
2023-04-08T00:22:00.352Z,34.70
2023-04-08T00:23:00.334Z,29.40
2023-04-08T00:24:00.343Z,27.60
2023-04-08T00:25:00.327Z,29.20
2023-04-08T00:26:00.295Z,40.80
2023-04-08T00:27:00.283Z,29.80
2023-04-08T00:28:00.291Z,31.90
2023-04-08T00:29:01.023Z,32.00
2023-04-08T00:30:00.256Z,33.70
2023-04-08T00:31:00.253Z,29.20
2023-04-08T00:32:00.231Z,26.40
2023-04-08T00:33:00.264Z,25.80
2023-04-08T00:34:00.224Z,31.90
2023-04-08T00:35:00.177Z,28.80
2023-04-08T00:36:00.251Z,28.80
2023-04-08T00:37:00.177Z,29.60
2023-04-08T00:38:00.158Z,33.20
2023-04-08T00:39:00.161Z,26.70
2023-04-08T00:40:00.213Z,30.50
2023-04-08T00:41:00.112Z,24.30
2023-04-08T00:42:00.154Z,23.60
2023-04-08T00:43:00.078Z,28.40
2023-04-08T00:44:00.105Z,36.40
2023-04-08T00:45:00.085Z,25.30
2023-04-08T00:46:00.066Z,32.00
2023-04-08T00:47:00.026Z,24.70
2023-04-08T00:48:00.045Z,27.60
2023-04-08T00:49:00.056Z,23.10
2023-04-08T00:50:00.031Z,22.90
2023-04-08T00:50:59.983Z,29.20
2023-04-08T00:52:00.023Z,29.90
2023-04-08T00:52:59.950Z,22.50
2023-04-08T00:53:59.937Z,32.40
2023-04-08T00:54:59.955Z,28.90
2023-04-08T00:55:59.906Z,29.40
2023-04-08T00:56:59.901Z,23.80
2023-04-08T00:57:59.892Z,21.90
2023-04-08T00:58:59.876Z,22.70
2023-04-08T00:59:59.849Z,24.40
2023-04-08T01:00:59.892Z,25.40
2023-04-08T01:01:59.967Z,25.90
2023-04-08T01:02:59.935Z,29.60
2023-04-08T01:03:59.924Z,26.40
2023-04-08T01:04:59.793Z,21.50
2023-04-08T01:05:59.806Z,24.30
2023-04-08T01:06:59.791Z,25.40
2023-04-08T01:07:59.758Z,24.20
2023-04-08T01:08:59.766Z,23.00
2023-04-08T01:09:59.744Z,22.50
2023-04-08T01:10:59.712Z,21.10
2023-04-08T01:11:59.719Z,21.60
2023-04-08T01:13:00.019Z,21.90
2023-04-08T01:13:59.682Z,21.10
2023-04-08T01:14:59.671Z,20.60
2023-04-08T01:15:59.664Z,21.40
2023-04-08T01:16:59.654Z,20.50
2023-04-08T01:17:59.740Z,22.80
2023-04-08T01:18:59.623Z,22.60
2023-04-08T01:19:59.618Z,22.10
2023-04-08T01:20:59.615Z,22.80
2023-04-08T01:21:59.580Z,22.50
2023-04-08T01:22:59.570Z,25.30
2023-04-08T01:23:59.544Z,23.30
2023-04-08T01:24:59.536Z,27.60
2023-04-08T01:25:59.520Z,22.60
2023-04-08T01:26:59.551Z,19.60
2023-04-08T01:27:59.511Z,23.00
2023-04-08T01:28:59.495Z,24.50
2023-04-08T01:29:59.474Z,26.60
2023-04-08T01:30:59.456Z,24.40
2023-04-08T01:31:59.494Z,25.40
2023-04-08T01:32:59.515Z,25.80
2023-04-08T01:33:59.419Z,27.90
2023-04-08T01:34:59.431Z,27.30
2023-04-08T01:35:59.433Z,25.50
2023-04-08T01:36:59.405Z,25.40
2023-04-08T01:37:59.348Z,29.30
2023-04-08T01:38:59.339Z,24.70
2023-04-08T01:39:59.325Z,22.40
2023-04-08T01:40:59.318Z,24.70
2023-04-08T01:41:59.321Z,26.70
2023-04-08T01:42:59.300Z,25.90
2023-04-08T01:43:59.324Z,26.70
2023-04-08T01:44:59.289Z,24.50
2023-04-08T01:45:59.270Z,25.90
2023-04-08T01:46:59.358Z,25.60
2023-04-08T01:47:59.300Z,27.20
2023-04-08T01:48:59.218Z,20.80
2023-04-08T01:49:59.199Z,23.80
2023-04-08T01:50:59.205Z,27.70
2023-04-08T01:51:59.183Z,26.00
2023-04-08T01:52:59.170Z,23.00
2023-04-08T01:53:59.201Z,22.80
2023-04-08T01:54:59.138Z,17.90
2023-04-08T01:55:59.138Z,32.70
2023-04-08T01:56:59.145Z,36.70
2023-04-08T01:57:59.108Z,37.40
2023-04-08T01:58:59.133Z,46.80
2023-04-08T01:59:59.087Z,40.00
2023-04-08T02:00:59.079Z,41.50
2023-04-08T02:01:59.172Z,42.80
2023-04-08T02:02:59.289Z,55.70
2023-04-08T02:03:59.091Z,54.30
2023-04-08T02:04:59.041Z,41.20
2023-04-08T02:05:59.002Z,64.90
2023-04-08T02:06:59.006Z,56.40
2023-04-08T02:07:58.989Z,57.80
2023-04-08T02:08:58.955Z,44.40
2023-04-08T02:09:58.973Z,57.40
2023-04-08T02:10:58.956Z,69.00
2023-04-08T02:11:58.949Z,63.60
2023-04-08T02:12:58.916Z,93.70
2023-04-08T02:13:58.904Z,54.70
2023-04-08T02:14:58.910Z,77.00
2023-04-08T02:15:58.878Z,58.70
2023-04-08T02:16:58.877Z,44.20
2023-04-08T02:17:58.879Z,35.50
2023-04-08T02:18:58.838Z,47.60
2023-04-08T02:19:58.820Z,42.90
2023-04-08T02:20:58.821Z,42.30
2023-04-08T02:21:58.819Z,45.50
2023-04-08T02:22:58.784Z,40.20
2023-04-08T02:23:58.785Z,46.50
2023-04-08T02:24:58.754Z,41.20
2023-04-08T02:25:58.784Z,37.80
2023-04-08T02:26:58.759Z,43.50
2023-04-08T02:27:58.736Z,37.90
2023-04-08T02:28:58.707Z,30.70
2023-04-08T02:29:58.700Z,44.10
2023-04-08T02:30:58.682Z,43.60
2023-04-08T02:31:58.737Z,64.10
2023-04-08T02:32:58.691Z,40.10
2023-04-08T02:33:58.656Z,45.90
2023-04-08T02:34:58.623Z,44.90
2023-04-08T02:35:58.636Z,46.40
2023-04-08T02:36:58.629Z,42.40
2023-04-08T02:37:58.596Z,41.50
2023-04-08T02:38:58.573Z,75.90
2023-04-08T02:39:58.594Z,42.40
2023-04-08T02:40:58.548Z,54.70
2023-04-08T02:41:58.558Z,87.30
2023-04-08T02:42:58.583Z,44.20
2023-04-08T02:43:58.516Z,58.00
2023-04-08T02:44:58.535Z,46.40
2023-04-08T02:45:58.520Z,43.10
2023-04-08T02:46:58.480Z,82.60
2023-04-08T02:47:58.500Z,80.30
2023-04-08T02:48:58.447Z,54.60
2023-04-08T02:49:58.436Z,52.90
2023-04-08T02:50:58.413Z,51.20
2023-04-08T02:51:58.423Z,69.40
2023-04-08T02:52:58.423Z,98.40
2023-04-08T02:53:58.376Z,81.00
2023-04-08T02:54:58.409Z,80.40
2023-04-08T02:55:58.351Z,94.60
2023-04-08T02:56:58.373Z,75.80
2023-04-08T02:57:58.329Z,69.30
2023-04-08T02:58:58.308Z,60.10
2023-04-08T02:59:58.306Z,165.40
2023-04-08T03:00:58.319Z,89.30
2023-04-08T03:01:58.389Z,60.80
2023-04-08T03:02:58.422Z,99.10
2023-04-08T03:03:58.302Z,161.10
2023-04-08T03:04:58.242Z,82.70
2023-04-08T03:05:58.244Z,94.70
2023-04-08T03:06:58.224Z,91.60
2023-04-08T03:07:58.197Z,113.20
2023-04-08T03:08:58.193Z,144.50
2023-04-08T03:09:58.169Z,69.50
2023-04-08T03:10:58.162Z,129.50
2023-04-08T03:11:58.165Z,61.60
2023-04-08T03:12:58.126Z,82.00
2023-04-08T03:13:58.121Z,155.30
2023-04-08T03:14:58.108Z,92.70
2023-04-08T03:15:58.085Z,65.70
2023-04-08T03:16:58.244Z,48.20
2023-04-08T03:17:58.113Z,94.20
2023-04-08T03:18:58.070Z,121.90
2023-04-08T03:19:58.033Z,74.30
2023-04-08T03:20:58.038Z,125.40
2023-04-08T03:21:58.025Z,126.40
2023-04-08T03:22:58.007Z,99.80
2023-04-08T03:23:58.000Z,114.60
2023-04-08T03:24:57.978Z,77.10
2023-04-08T03:25:57.956Z,56.50
2023-04-08T03:26:57.966Z,46.50
2023-04-08T03:27:57.953Z,79.20
2023-04-08T03:28:57.948Z,51.50
2023-04-08T03:29:57.943Z,156.30
2023-04-08T03:30:57.902Z,116.70
2023-04-08T03:31:58.223Z,39.50
2023-04-08T03:32:57.935Z,108.50
2023-04-08T03:33:57.906Z,63.00
2023-04-08T03:34:57.837Z,60.10
2023-04-08T03:35:57.857Z,73.80
2023-04-08T03:36:57.844Z,140.10
2023-04-08T03:37:57.802Z,63.10
2023-04-08T03:38:57.787Z,99.50
2023-04-08T03:39:57.798Z,93.30
2023-04-08T03:40:57.773Z,78.20
2023-04-08T03:41:57.880Z,63.90
2023-04-08T03:42:57.775Z,142.00
2023-04-08T03:43:57.749Z,86.60
2023-04-08T03:44:57.713Z,64.80
2023-04-08T03:45:57.715Z,59.30
2023-04-08T03:46:58.139Z,49.40
2023-04-08T03:47:57.709Z,101.10
2023-04-08T03:48:57.693Z,60.20
2023-04-08T03:49:57.648Z,66.90
2023-04-08T03:50:57.653Z,75.00
2023-04-08T03:51:57.635Z,35.20
2023-04-08T03:52:57.611Z,49.30
2023-04-08T03:53:57.651Z,49.80
2023-04-08T03:54:57.586Z,41.00
2023-04-08T03:55:57.584Z,43.90
2023-04-08T03:56:57.574Z,42.90
2023-04-08T03:57:57.566Z,32.80
2023-04-08T03:58:57.567Z,58.00
2023-04-08T03:59:57.515Z,41.80
2023-04-08T04:00:58.385Z,65.70
2023-04-08T04:01:57.536Z,46.70
2023-04-08T04:02:57.587Z,43.80
2023-04-08T04:03:57.579Z,41.70
2023-04-08T04:04:57.518Z,34.70
2023-04-08T04:05:57.578Z,50.70
2023-04-08T04:06:57.724Z,38.70
2023-04-08T04:07:57.413Z,39.80
2023-04-08T04:08:57.394Z,41.50
2023-04-08T04:09:57.385Z,35.70
2023-04-08T04:10:57.408Z,38.40
2023-04-08T04:11:57.521Z,51.50
2023-04-08T04:12:57.350Z,58.60
2023-04-08T04:13:57.324Z,26.30
2023-04-08T04:14:57.313Z,42.70
2023-04-08T04:15:57.323Z,37.40
2023-04-08T04:16:57.326Z,36.40
2023-04-08T04:17:57.332Z,34.70
2023-04-08T04:18:57.292Z,35.50
2023-04-08T04:19:57.258Z,62.30
2023-04-08T04:20:57.252Z,36.50
2023-04-08T04:21:57.265Z,48.30
2023-04-08T04:22:57.227Z,51.80
2023-04-08T04:23:57.194Z,34.60
2023-04-08T04:24:57.213Z,51.70
2023-04-08T04:25:57.170Z,49.00
2023-04-08T04:26:57.176Z,60.20
2023-04-08T04:27:57.185Z,38.20
2023-04-08T04:28:57.159Z,32.30
2023-04-08T04:29:57.153Z,37.30
2023-04-08T04:30:57.163Z,55.60
2023-04-08T04:31:57.122Z,33.40
2023-04-08T04:32:57.141Z,47.90
2023-04-08T04:33:57.296Z,39.80
2023-04-08T04:34:57.075Z,44.10
2023-04-08T04:35:57.107Z,52.10
2023-04-08T04:36:57.047Z,37.60
2023-04-08T04:37:57.017Z,53.30
2023-04-08T04:38:56.999Z,43.30
2023-04-08T04:39:57.002Z,44.10
2023-04-08T04:40:56.973Z,43.20
2023-04-08T04:41:57.005Z,66.00
2023-04-08T04:42:56.966Z,48.70
2023-04-08T04:43:56.945Z,57.70
2023-04-08T04:44:56.953Z,72.50
2023-04-08T04:45:57.321Z,78.30
2023-04-08T04:46:56.912Z,36.20
2023-04-08T04:47:56.914Z,62.60
2023-04-08T04:48:56.870Z,57.70
2023-04-08T04:49:56.848Z,50.50
2023-04-08T04:50:56.840Z,58.60
2023-04-08T04:51:56.866Z,58.10
2023-04-08T04:52:56.856Z,95.00
2023-04-08T04:53:56.810Z,86.90
2023-04-08T04:54:56.812Z,73.10
2023-04-08T04:55:56.788Z,64.60
2023-04-08T04:56:56.766Z,54.90
2023-04-08T04:57:56.771Z,76.30
2023-04-08T04:58:56.750Z,58.80
2023-04-08T04:59:56.753Z,46.80
2023-04-08T05:00:56.742Z,76.80
2023-04-08T05:01:56.839Z,72.60
2023-04-08T05:02:57.656Z,80.50
2023-04-08T05:03:56.839Z,52.10
2023-04-08T05:04:56.773Z,42.30
2023-04-08T05:05:56.658Z,52.60
2023-04-08T05:06:56.647Z,43.50
2023-04-08T05:07:56.619Z,47.80
2023-04-08T05:08:56.645Z,64.40
2023-04-08T05:09:56.594Z,77.50
2023-04-08T05:10:56.594Z,105.60
2023-04-08T05:11:56.604Z,56.20
2023-04-08T05:12:56.660Z,93.30
2023-04-08T05:13:56.562Z,51.60
2023-04-08T05:14:56.557Z,77.70
2023-04-08T05:15:56.595Z,98.50
2023-04-08T05:16:56.545Z,96.00
2023-04-08T05:17:56.568Z,83.50
2023-04-08T05:18:56.648Z,77.10
2023-04-08T05:19:56.479Z,71.00
2023-04-08T05:20:56.462Z,96.20
2023-04-08T05:21:56.465Z,84.50
2023-04-08T05:22:56.449Z,72.20
2023-04-08T05:23:56.422Z,57.00
2023-04-08T05:24:56.435Z,62.80
2023-04-08T05:25:56.394Z,34.00
2023-04-08T05:26:56.439Z,54.80
2023-04-08T05:27:56.375Z,64.50
2023-04-08T05:28:56.357Z,60.00
2023-04-08T05:29:56.355Z,59.40
2023-04-08T05:30:56.639Z,61.40
2023-04-08T05:31:56.439Z,54.70
2023-04-08T05:32:59.323Z,85.70
2023-04-08T05:33:56.295Z,64.10
2023-04-08T05:34:56.278Z,56.90
2023-04-08T05:35:56.388Z,50.80
2023-04-08T05:36:56.288Z,126.70
2023-04-08T05:37:56.288Z,65.80
2023-04-08T05:38:56.235Z,113.20
2023-04-08T05:39:56.217Z,121.40
2023-04-08T05:40:56.220Z,58.40
2023-04-08T05:41:56.212Z,53.00
2023-04-08T05:42:56.190Z,93.10
2023-04-08T05:43:56.181Z,68.60
2023-04-08T05:44:56.148Z,61.00
2023-04-08T05:45:56.146Z,43.70
2023-04-08T05:46:56.214Z,61.90
2023-04-08T05:47:56.159Z,58.10
2023-04-08T05:48:56.105Z,42.80
2023-04-08T05:49:56.085Z,72.90
2023-04-08T05:50:56.076Z,89.50
2023-04-08T05:51:56.084Z,141.00
2023-04-08T05:52:56.053Z,65.10
2023-04-08T05:53:56.041Z,103.20
2023-04-08T05:54:56.045Z,163.20
2023-04-08T05:55:56.013Z,73.20
2023-04-08T05:56:56.013Z,88.70
2023-04-08T05:57:56.029Z,50.20
2023-04-08T05:58:55.998Z,87.80
2023-04-08T05:59:55.952Z,58.50
2023-04-08T06:00:55.926Z,50.70
2023-04-08T06:01:55.994Z,63.40
2023-04-08T06:02:56.108Z,108.80
2023-04-08T06:03:56.153Z,115.30
2023-04-08T06:04:55.968Z,120.60
2023-04-08T06:05:55.863Z,101.50
2023-04-08T06:06:55.852Z,78.90
2023-04-08T06:07:55.888Z,49.50
2023-04-08T06:08:55.826Z,135.00
2023-04-08T06:09:55.826Z,89.10
2023-04-08T06:10:55.797Z,53.50
2023-04-08T06:11:55.784Z,122.30
2023-04-08T06:12:55.795Z,98.20
2023-04-08T06:13:55.798Z,63.00
2023-04-08T06:14:56.077Z,68.30
2023-04-08T06:15:55.738Z,58.80
2023-04-08T06:16:55.763Z,59.70
2023-04-08T06:17:55.747Z,67.60
2023-04-08T06:18:55.721Z,66.40
2023-04-08T06:19:55.830Z,51.00
2023-04-08T06:20:55.677Z,70.60
2023-04-08T06:21:55.673Z,51.70
2023-04-08T06:22:55.642Z,50.30
2023-04-08T06:23:55.650Z,51.90
2023-04-08T06:24:55.640Z,52.70
2023-04-08T06:25:55.604Z,68.90
2023-04-08T06:26:55.823Z,64.90
2023-04-08T06:27:55.757Z,63.00
2023-04-08T06:28:55.661Z,60.70
2023-04-08T06:29:55.576Z,85.70
2023-04-08T06:30:56.435Z,48.50
2023-04-08T06:31:55.628Z,59.00
2023-04-08T06:32:55.657Z,46.90
2023-04-08T06:33:55.508Z,52.30
2023-04-08T06:34:55.508Z,63.60
2023-04-08T06:35:55.493Z,58.30
2023-04-08T06:36:55.507Z,52.50
2023-04-08T06:37:55.475Z,49.90
2023-04-08T06:38:55.437Z,64.70
2023-04-08T06:39:55.459Z,53.30
2023-04-08T06:40:55.648Z,56.60
2023-04-08T06:41:55.442Z,54.40
2023-04-08T06:42:55.415Z,56.10
2023-04-08T06:43:55.579Z,50.30
2023-04-08T06:44:55.357Z,52.90
2023-04-08T06:45:55.383Z,53.20
2023-04-08T06:46:55.335Z,53.60
2023-04-08T06:47:55.410Z,64.00
2023-04-08T06:48:55.330Z,61.00
2023-04-08T06:49:55.316Z,49.90
2023-04-08T06:50:55.301Z,56.20
2023-04-08T06:51:55.289Z,86.10
2023-04-08T06:52:55.239Z,56.20
2023-04-08T06:53:55.270Z,60.50
2023-04-08T06:54:55.277Z,67.20
2023-04-08T06:55:55.236Z,81.40
2023-04-08T06:56:55.368Z,66.00
2023-04-08T06:57:55.175Z,62.90
2023-04-08T06:58:55.245Z,65.20
2023-04-08T06:59:55.408Z,62.00
2023-04-08T07:00:55.419Z,84.50
2023-04-08T07:01:55.536Z,61.60
2023-04-08T07:02:55.345Z,61.60
2023-04-08T07:03:55.199Z,66.60
2023-04-08T07:04:55.107Z,62.20
2023-04-08T07:05:55.088Z,97.10
2023-04-08T07:06:55.098Z,85.30
2023-04-08T07:07:55.071Z,70.00
2023-04-08T07:08:55.064Z,84.80
2023-04-08T07:09:55.093Z,54.60
2023-04-08T07:10:55.116Z,59.40
2023-04-08T07:11:55.033Z,54.90
2023-04-08T07:12:55.098Z,92.50
2023-04-08T07:13:54.977Z,69.40
2023-04-08T07:14:54.999Z,55.70
2023-04-08T07:15:55.141Z,62.50
2023-04-08T07:16:55.069Z,56.50
2023-04-08T07:17:55.006Z,59.80
2023-04-08T07:18:54.956Z,52.30
2023-04-08T07:19:54.975Z,52.10
2023-04-08T07:20:54.989Z,69.70
2023-04-08T07:21:54.889Z,54.90
2023-04-08T07:22:54.875Z,61.90
2023-04-08T07:23:54.900Z,57.20
2023-04-08T07:24:54.877Z,52.90
2023-04-08T07:25:54.841Z,47.00
2023-04-08T07:26:54.834Z,62.60
2023-04-08T07:27:54.794Z,56.20
2023-04-08T07:28:54.785Z,63.60
2023-04-08T07:29:54.815Z,48.40
2023-04-08T07:30:54.795Z,59.00
2023-04-08T07:31:54.781Z,73.80
2023-04-08T07:32:54.778Z,66.10
2023-04-08T07:33:54.768Z,61.70
2023-04-08T07:34:54.725Z,67.80
2023-04-08T07:35:54.753Z,70.80
2023-04-08T07:36:54.779Z,72.00
2023-04-08T07:37:54.674Z,78.20
2023-04-08T07:38:54.687Z,72.30
2023-04-08T07:39:54.668Z,71.70
2023-04-08T07:40:54.631Z,67.40
2023-04-08T07:41:54.609Z,77.30
2023-04-08T07:42:54.657Z,77.00
2023-04-08T07:43:54.640Z,73.90
2023-04-08T07:44:54.607Z,73.30
2023-04-08T07:45:54.602Z,70.90
2023-04-08T07:46:54.539Z,76.30
2023-04-08T07:47:54.616Z,65.20
2023-04-08T07:48:54.532Z,67.90
2023-04-08T07:49:54.528Z,71.90
2023-04-08T07:51:08.420Z,71.10
2023-04-08T07:51:55.529Z,77.00
2023-04-08T07:52:54.480Z,82.30
2023-04-08T07:53:54.493Z,70.20
2023-04-08T07:54:54.430Z,74.40
2023-04-08T07:55:54.425Z,68.60
2023-04-08T07:56:54.445Z,71.00
2023-04-08T07:57:54.425Z,66.00
2023-04-08T07:58:54.567Z,64.30
2023-04-08T07:59:54.499Z,71.30
2023-04-08T08:00:54.380Z,62.30
2023-04-08T08:01:54.603Z,72.20
2023-04-08T08:02:54.435Z,75.30
2023-04-08T08:03:54.854Z,79.20
2023-04-08T08:04:54.371Z,61.70
2023-04-08T08:05:54.297Z,60.70
2023-04-08T08:06:54.295Z,69.20
2023-04-08T08:07:54.270Z,66.40
2023-04-08T08:08:54.258Z,60.50
2023-04-08T08:09:54.304Z,58.80
2023-04-08T08:10:54.400Z,51.10
2023-04-08T08:11:54.265Z,51.20
2023-04-08T08:12:54.208Z,48.40
2023-04-08T08:13:54.231Z,50.70
2023-04-08T08:14:54.177Z,44.80
2023-04-08T08:15:54.217Z,36.70
2023-04-08T08:16:54.165Z,33.20
2023-04-08T08:17:54.180Z,28.10
2023-04-08T08:18:54.133Z,31.40
2023-04-08T08:19:54.104Z,27.40
2023-04-08T08:20:54.142Z,24.90
2023-04-08T08:21:54.137Z,30.10
2023-04-08T08:22:57.713Z,30.20
2023-04-08T08:23:54.050Z,27.80
2023-04-08T08:24:54.096Z,23.50
2023-04-08T08:25:54.022Z,28.30
2023-04-08T08:26:54.045Z,23.80
2023-04-08T08:27:54.048Z,25.50
2023-04-08T08:28:53.984Z,22.00
2023-04-08T08:29:53.974Z,24.80
2023-04-08T08:30:54.005Z,25.20
2023-04-08T08:31:53.977Z,23.80
2023-04-08T08:32:54.004Z,21.90
2023-04-08T08:33:53.973Z,24.40
2023-04-08T08:34:53.906Z,23.20
2023-04-08T08:35:53.956Z,25.40
2023-04-08T08:36:53.903Z,22.80
2023-04-08T08:37:53.876Z,19.30
2023-04-08T08:38:53.859Z,26.80
2023-04-08T08:39:53.886Z,25.30
2023-04-08T08:40:53.828Z,23.70
2023-04-08T08:41:53.840Z,22.70
2023-04-08T08:42:53.840Z,21.60
2023-04-08T08:43:53.807Z,24.60
2023-04-08T08:44:53.780Z,22.10
2023-04-08T08:45:53.772Z,23.90
2023-04-08T08:46:53.807Z,22.00
2023-04-08T08:47:53.794Z,21.20
2023-04-08T08:48:53.772Z,26.10
2023-04-08T08:49:53.810Z,23.20
2023-04-08T08:50:54.067Z,31.10
2023-04-08T08:51:53.707Z,21.90
2023-04-08T08:52:53.733Z,30.00
2023-04-08T08:53:53.916Z,25.30
2023-04-08T08:54:53.644Z,21.20
2023-04-08T08:56:16.409Z,23.40
2023-04-08T08:56:54.652Z,19.60
2023-04-08T08:57:53.638Z,24.10
2023-04-08T08:58:53.596Z,21.40
2023-04-08T08:59:53.586Z,23.10
2023-04-08T09:00:53.573Z,22.70
2023-04-08T09:01:53.659Z,21.50
2023-04-08T09:02:53.842Z,21.60
2023-04-08T09:03:53.755Z,23.20
2023-04-08T09:04:53.681Z,21.60
2023-04-08T09:05:53.500Z,20.70
2023-04-08T09:06:53.508Z,17.80
2023-04-08T09:07:53.617Z,24.30
2023-04-08T09:08:53.487Z,24.30
2023-04-08T09:09:53.445Z,22.10
2023-04-08T09:10:53.445Z,22.50
2023-04-08T09:11:53.424Z,22.00
2023-04-08T09:12:53.455Z,18.60
2023-04-08T09:13:53.412Z,21.10
2023-04-08T09:14:53.393Z,18.50
2023-04-08T09:15:53.397Z,19.80
2023-04-08T09:16:53.438Z,22.50
2023-04-08T09:17:53.373Z,18.70
2023-04-08T09:18:53.440Z,17.80
2023-04-08T09:19:53.344Z,20.50
2023-04-08T09:20:53.336Z,18.50
2023-04-08T09:21:53.296Z,18.60
2023-04-08T09:22:53.709Z,20.40
2023-04-08T09:23:53.632Z,21.90
2023-04-08T09:24:53.267Z,19.20
2023-04-08T09:25:53.247Z,17.50
2023-04-08T09:26:53.235Z,17.30
2023-04-08T09:27:53.266Z,15.70
2023-04-08T09:28:53.229Z,16.10
2023-04-08T09:29:53.207Z,18.20
2023-04-08T09:30:53.174Z,14.20
2023-04-08T09:31:53.188Z,20.20
2023-04-08T09:32:53.183Z,17.50
2023-04-08T09:33:53.205Z,16.90
2023-04-08T09:34:53.133Z,18.10
2023-04-08T09:35:53.175Z,16.60
2023-04-08T09:36:53.139Z,15.60
2023-04-08T09:37:53.102Z,12.80
2023-04-08T09:38:53.069Z,17.30
2023-04-08T09:39:53.069Z,11.80
2023-04-08T09:40:53.045Z,13.20
2023-04-08T09:41:53.299Z,13.50
2023-04-08T09:42:53.037Z,15.70
2023-04-08T09:43:53.221Z,11.40
2023-04-08T09:44:53.120Z,16.00
2023-04-08T09:45:53.047Z,14.50
2023-04-08T09:46:53.028Z,14.20
2023-04-08T09:47:53.054Z,12.90
2023-04-08T09:48:52.941Z,14.00
2023-04-08T09:49:52.965Z,20.90
2023-04-08T09:50:52.922Z,11.80
2023-04-08T09:51:52.912Z,15.30
2023-04-08T09:52:52.927Z,11.90
2023-04-08T09:53:52.920Z,12.80
2023-04-08T09:54:52.883Z,13.80
2023-04-08T09:55:52.859Z,11.60
2023-04-08T09:56:52.843Z,12.00
2023-04-08T09:57:52.817Z,10.60
2023-04-08T09:58:52.865Z,12.60
2023-04-08T09:59:52.800Z,14.60
2023-04-08T10:00:52.802Z,12.10
2023-04-08T10:01:52.812Z,11.50
2023-04-08T10:02:53.646Z,13.50
2023-04-08T10:03:53.061Z,12.90
2023-04-08T10:04:52.752Z,15.40
2023-04-08T10:05:52.722Z,14.60
2023-04-08T10:06:52.712Z,12.30
2023-04-08T10:07:52.710Z,11.00
2023-04-08T10:08:52.677Z,11.70
2023-04-08T10:09:52.681Z,13.50
2023-04-08T10:10:52.660Z,13.10
2023-04-08T10:11:52.645Z,11.00
2023-04-08T10:12:52.647Z,13.30
2023-04-08T10:13:52.835Z,13.40
2023-04-08T10:14:52.606Z,11.20
2023-04-08T10:15:52.585Z,10.90
2023-04-08T10:16:52.632Z,12.90
2023-04-08T10:17:52.696Z,10.80
2023-04-08T10:18:52.551Z,11.60
2023-04-08T10:19:52.543Z,14.00
2023-04-08T10:20:52.566Z,10.70
2023-04-08T10:21:52.520Z,10.80
2023-04-08T10:22:52.530Z,13.40
2023-04-08T10:23:52.503Z,15.00
2023-04-08T10:24:52.481Z,12.90
2023-04-08T10:25:52.459Z,12.90
2023-04-08T10:26:52.461Z,18.00
2023-04-08T10:27:52.446Z,12.90
2023-04-08T10:28:52.443Z,14.30
2023-04-08T10:29:52.399Z,15.00
2023-04-08T10:30:52.394Z,14.50
2023-04-08T10:31:52.442Z,17.70
2023-04-08T10:32:52.412Z,18.00
2023-04-08T10:33:52.358Z,12.50
2023-04-08T10:34:52.343Z,14.80
2023-04-08T10:35:52.341Z,12.50
2023-04-08T10:36:52.317Z,12.20
2023-04-08T10:37:52.298Z,12.10
2023-04-08T10:38:52.551Z,12.90
2023-04-08T10:39:52.266Z,13.70
2023-04-08T10:40:52.255Z,12.60
2023-04-08T10:41:52.264Z,13.60
2023-04-08T10:42:52.267Z,13.20
2023-04-08T10:43:52.441Z,12.40
2023-04-08T10:44:52.206Z,13.20
2023-04-08T10:45:52.217Z,13.50
2023-04-08T10:46:52.184Z,12.70
2023-04-08T10:47:52.193Z,15.80
2023-04-08T10:48:52.206Z,12.90
2023-04-08T10:49:52.134Z,14.50
2023-04-08T10:50:52.155Z,13.90
2023-04-08T10:51:52.106Z,19.60
2023-04-08T10:52:52.127Z,10.50
2023-04-08T10:53:52.347Z,12.00
2023-04-08T10:54:52.083Z,12.90
2023-04-08T10:55:52.048Z,15.00
2023-04-08T10:56:52.036Z,12.80
2023-04-08T10:57:52.030Z,11.80
2023-04-08T10:58:52.040Z,13.70
2023-04-08T10:59:52.023Z,12.60
2023-04-08T11:00:52.013Z,16.20
2023-04-08T11:01:52.054Z,13.20
2023-04-08T11:02:52.148Z,15.10
2023-04-08T11:03:52.521Z,16.50
2023-04-08T11:04:51.948Z,15.40
2023-04-08T11:05:51.945Z,16.40
2023-04-08T11:06:51.921Z,15.60
2023-04-08T11:07:51.899Z,15.30
2023-04-08T11:08:51.936Z,15.90
2023-04-08T11:09:51.875Z,14.20
2023-04-08T11:10:51.869Z,16.10
2023-04-08T11:11:51.885Z,18.90
2023-04-08T11:12:51.864Z,16.10
2023-04-08T11:13:53.769Z,16.90
2023-04-08T11:14:51.811Z,15.80
2023-04-08T11:15:51.857Z,16.80
2023-04-08T11:16:51.820Z,16.70
2023-04-08T11:17:51.880Z,17.40
2023-04-08T11:18:51.797Z,19.00
2023-04-08T11:19:51.749Z,20.60
2023-04-08T11:20:51.725Z,18.40
2023-04-08T11:21:51.720Z,20.30
2023-04-08T11:22:51.715Z,18.70
2023-04-08T11:23:51.971Z,18.60
2023-04-08T11:24:51.678Z,16.40
2023-04-08T11:25:51.688Z,19.10
2023-04-08T11:26:51.651Z,22.70
2023-04-08T11:27:51.666Z,17.30
2023-04-08T11:28:51.716Z,18.80
2023-04-08T11:29:51.653Z,15.80
2023-04-08T11:30:51.648Z,21.80
2023-04-08T11:31:51.596Z,18.80
2023-04-08T11:32:51.676Z,19.10
2023-04-08T11:33:51.836Z,17.80
2023-04-08T11:34:51.547Z,19.20
2023-04-08T11:35:51.591Z,21.20
2023-04-08T11:36:51.530Z,19.60
2023-04-08T11:37:51.502Z,20.50
2023-04-08T11:38:51.510Z,19.70
2023-04-08T11:39:51.479Z,19.80
2023-04-08T11:40:51.463Z,20.40
2023-04-08T11:41:51.448Z,21.90
2023-04-08T11:42:51.455Z,19.60
2023-04-08T11:43:51.645Z,22.00
2023-04-08T11:44:51.412Z,22.00
2023-04-08T11:45:51.395Z,18.00
2023-04-08T11:46:51.430Z,20.30
2023-04-08T11:47:51.499Z,19.00
2023-04-08T11:48:51.379Z,19.20
2023-04-08T11:49:51.369Z,18.20
2023-04-08T11:50:51.345Z,18.80
2023-04-08T11:51:51.351Z,19.50
2023-04-08T11:52:51.317Z,15.90
2023-04-08T11:53:52.653Z,16.80
2023-04-08T11:54:51.303Z,17.60
2023-04-08T11:55:51.276Z,17.00
2023-04-08T11:56:51.250Z,13.80
2023-04-08T11:57:51.245Z,20.30
2023-04-08T11:58:51.240Z,17.40
2023-04-08T11:59:51.226Z,19.60
2023-04-08T12:00:51.223Z,16.50
2023-04-08T12:01:51.261Z,17.90
2023-04-08T12:02:51.269Z,17.60
2023-04-08T12:03:51.750Z,13.10
2023-04-08T12:04:51.193Z,14.90
2023-04-08T12:05:51.149Z,20.40
2023-04-08T12:06:51.150Z,14.20
2023-04-08T12:07:51.141Z,16.70
2023-04-08T12:08:51.107Z,16.00
2023-04-08T12:09:51.090Z,12.80
2023-04-08T12:10:51.078Z,15.80
2023-04-08T12:11:51.060Z,13.90
2023-04-08T12:12:51.077Z,14.00
2023-04-08T12:13:51.422Z,14.40
2023-04-08T12:14:51.045Z,19.20
2023-04-08T12:15:51.023Z,13.70
2023-04-08T12:16:51.001Z,16.60
2023-04-08T12:17:51.083Z,13.50
2023-04-08T12:18:51.010Z,13.10
2023-04-08T12:19:50.957Z,14.20
2023-04-08T12:20:50.933Z,12.60
2023-04-08T12:21:50.931Z,14.40
2023-04-08T12:22:50.915Z,15.20
2023-04-08T12:23:51.062Z,14.60
2023-04-08T12:24:50.888Z,15.80
2023-04-08T12:25:50.873Z,12.50
2023-04-08T12:26:50.868Z,13.10
2023-04-08T12:27:50.898Z,13.10
2023-04-08T12:28:50.873Z,13.70
2023-04-08T12:29:50.823Z,15.50
2023-04-08T12:30:50.807Z,13.20
2023-04-08T12:31:50.824Z,11.30
2023-04-08T12:32:50.856Z,13.20
2023-04-08T12:33:51.003Z,14.70
2023-04-08T12:34:50.755Z,11.70
2023-04-08T12:35:50.789Z,14.40
2023-04-08T12:36:50.736Z,13.20
2023-04-08T12:37:50.745Z,16.30
2023-04-08T12:38:50.960Z,13.40
2023-04-08T12:39:50.691Z,13.80
2023-04-08T12:40:50.675Z,16.10
2023-04-08T12:41:50.671Z,12.70
2023-04-08T12:42:50.657Z,14.70
2023-04-08T12:43:50.671Z,14.40
2023-04-08T12:44:50.632Z,13.40
2023-04-08T12:45:50.632Z,14.80
2023-04-08T12:46:50.724Z,13.50
2023-04-08T12:47:50.646Z,15.70
2023-04-08T12:49:02.893Z,15.70
2023-04-08T12:49:51.570Z,10.60
2023-04-08T12:50:50.559Z,15.40